Time;durP1;ratioP1;P1;durP2;ratioP2;P2;SDS_P1;SDS_P2;PMS_P1;PMS_P2;Temp;Humidity;BMP_temperature;BMP_pressure;BME280_temperature;BME280_humidity;BME280_pressure;Samples;Min_cycle;Max_cycle;Signal;HPM_P1;HPM_P2
2022/05/27 00:01:23;;;;;;;2.67;1.43;;;17.80;75.70;;;;;;7368841;19;20479;-76
2022/05/27 00:03:56;;;;;;;1.40;0.87;;;17.80;75.60;;;;;;7376345;19;20382;-76
2022/05/27 00:06:26;;;;;;;2.63;1.30;;;17.80;76.20;;;;;;7367027;19;20428;-76
2022/05/27 00:08:57;;;;;;;1.70;1.00;;;17.90;75.30;;;;;;7367214;19;20437;-76
2022/05/27 00:11:27;;;;;;;2.43;1.00;;;17.90;75.20;;;;;;7366410;19;20411;-76
2022/05/27 00:13:59;;;;;;;2.77;1.37;;;17.90;75.50;;;;;;7378801;19;21306;-76
2022/05/27 00:16:30;;;;;;;3.67;1.23;;;18.00;75.90;;;;;;7369059;19;20417;-77
2022/05/27 00:19:03;;;;;;;2.77;1.50;;;17.80;76.00;;;;;;7371608;19;20416;-77
2022/05/27 00:21:32;;;;;;;1.60;1.20;;;17.80;76.10;;;;;;7370632;19;20391;-76
2022/05/27 00:24:02;;;;;;;1.77;0.80;;;17.90;75.90;;;;;;7374813;19;20439;-76
2022/05/27 00:26:32;;;;;;;1.87;1.10;;;17.80;76.70;;;;;;7372392;19;20464;-75
2022/05/27 00:29:01;;;;;;;1.53;1.43;;;17.80;76.30;;;;;;7370379;19;20391;-75
2022/05/27 00:31:32;;;;;;;3.53;1.33;;;17.80;76.00;;;;;;7372171;19;20416;-76
2022/05/27 00:34:04;;;;;;;1.13;0.83;;;17.80;75.30;;;;;;7373826;19;20419;-76
2022/05/27 00:36:33;;;;;;;1.70;1.03;;;17.80;76.00;;;;;;7371690;19;20421;-76
2022/05/27 00:39:03;;;;;;;2.93;1.40;;;17.80;76.40;;;;;;7367455;19;20536;-75
2022/05/27 00:41:33;;;;;;;2.50;1.27;;;17.70;76.40;;;;;;7371655;19;21062;-76
2022/05/27 00:44:02;;;;;;;2.10;1.60;;;17.70;76.80;;;;;;7375473;19;20937;-76
2022/05/27 00:46:37;;;;;;;1.23;1.13;;;17.60;77.40;;;;;;7347477;19;21450;-76
2022/05/27 00:49:13;;;;;;;3.97;1.40;;;17.60;77.20;;;;;;7360820;19;20737;-76
2022/05/27 00:51:49;;;;;;;1.97;1.40;;;17.60;77.30;;;;;;7374775;19;20408;-76
2022/05/27 00:54:22;;;;;;;1.40;1.00;;;17.60;77.40;;;;;;7372653;19;20420;-76
2022/05/27 00:56:56;;;;;;;1.40;1.03;;;17.50;77.20;;;;;;7373154;19;20432;-76
2022/05/27 00:59:32;;;;;;;2.33;1.20;;;17.40;77.10;;;;;;7374487;19;20434;-76
2022/05/27 01:02:01;;;;;;;2.20;1.20;;;17.40;76.80;;;;;;7369488;19;20416;-76
2022/05/27 01:04:37;;;;;;;1.77;1.20;;;17.40;77.30;;;;;;7376281;19;20408;-76
2022/05/27 01:07:07;;;;;;;2.27;1.27;;;17.40;77.30;;;;;;7373209;19;20471;-76
2022/05/27 01:09:43;;;;;;;4.20;1.27;;;17.40;77.80;;;;;;7376585;19;20388;-76
2022/05/27 01:12:38;;;;;;;1.70;1.20;;;17.40;77.70;;;;;;7376574;19;20391;-76
2022/05/27 01:15:18;;;;;;;2.10;1.40;;;17.40;77.90;;;;;;7365004;19;20401;-76
2022/05/27 01:18:02;;;;;;;1.80;1.03;;;17.40;78.60;;;;;;7371455;19;20416;-75
2022/05/27 01:20:42;;;;;;;1.40;1.30;;;17.40;78.70;;;;;;7371732;19;20400;-75
2022/05/27 01:23:50;;;;;;;1.80;1.40;;;17.40;78.90;;;;;;7373886;19;20735;-76
2022/05/27 01:26:49;;;;;;;3.33;1.20;;;17.50;78.30;;;;;;7369717;19;20384;-76
2022/05/27 01:29:50;;;;;;;2.80;1.10;;;17.40;78.90;;;;;;7371200;19;20543;-76
2022/05/27 01:32:28;;;;;;;1.73;1.13;;;17.30;79.30;;;;;;7369747;19;20402;-76
2022/05/27 01:35:16;;;;;;;1.90;1.10;;;17.20;80.50;;;;;;7376972;19;20388;-76
2022/05/27 01:37:52;;;;;;;1.70;0.90;;;17.20;79.50;;;;;;7373269;19;20408;-73
2022/05/27 01:40:31;;;;;;;1.50;1.40;;;17.20;80.10;;;;;;7372597;19;20492;-75
2022/05/27 01:43:04;;;;;;;3.43;1.47;;;17.30;79.90;;;;;;7368829;19;20443;-76
2022/05/27 01:45:40;;;;;;;3.10;1.40;;;17.20;79.60;;;;;;7365615;19;21448;-76
2022/05/27 01:48:17;;;;;;;1.87;1.10;;;17.10;80.20;;;;;;7358911;19;20412;-76
2022/05/27 01:50:52;;;;;;;1.20;1.10;;;17.10;80.50;;;;;;7366685;19;20492;-76
2022/05/27 01:53:32;;;;;;;1.43;1.20;;;17.20;80.80;;;;;;7368447;19;20409;-76
2022/05/27 01:56:09;;;;;;;0.97;0.93;;;17.30;80.80;;;;;;7366973;19;20431;-76
2022/05/27 01:58:43;;;;;;;1.77;1.30;;;17.20;80.50;;;;;;7361940;19;20428;-75
2022/05/27 02:01:17;;;;;;;1.23;1.00;;;17.20;80.30;;;;;;7368631;19;20438;-76
2022/05/27 02:03:53;;;;;;;1.87;1.20;;;17.00;80.10;;;;;;7372160;19;20383;-76
2022/05/27 02:06:28;;;;;;;3.23;1.40;;;17.30;80.70;;;;;;7366595;19;20404;-76
2022/05/27 02:09:03;;;;;;;2.83;1.37;;;17.10;80.20;;;;;;7363507;19;20416;-76
2022/05/27 02:11:33;;;;;;;1.60;1.50;;;17.00;81.20;;;;;;7370909;19;20948;-76
2022/05/27 02:14:10;;;;;;;2.20;1.37;;;17.10;80.90;;;;;;7365881;19;20413;-77
2022/05/27 02:16:43;;;;;;;1.70;1.30;;;16.90;81.30;;;;;;7360795;19;20948;-76
2022/05/27 02:19:24;;;;;;;1.50;1.40;;;16.90;81.60;;;;;;7367134;19;20373;-75
2022/05/27 02:21:56;;;;;;;2.63;1.37;;;17.00;82.00;;;;;;7372711;19;20376;-74
2022/05/27 02:24:36;;;;;;;2.93;1.67;;;17.00;81.80;;;;;;7354053;19;20423;-76
2022/05/27 02:27:09;;;;;;;3.23;1.33;;;16.90;82.30;;;;;;7363576;19;20417;-76
2022/05/27 02:29:41;;;;;;;2.60;1.50;;;16.90;82.60;;;;;;7366995;19;20778;-75
2022/05/27 02:32:18;;;;;;;1.53;1.30;;;17.00;83.60;;;;;;7368093;19;20408;-75
2022/05/27 02:35:07;;;;;;;2.00;1.43;;;17.00;82.50;;;;;;7368999;19;20447;-76
2022/05/27 02:37:40;;;;;;;2.27;1.60;;;16.90;83.00;;;;;;7368139;19;20915;-76
2022/05/27 02:40:15;;;;;;;3.33;1.20;;;16.90;82.90;;;;;;7366653;19;20437;-75
2022/05/27 02:43:09;;;;;;;1.80;1.40;;;16.90;83.00;;;;;;7368070;19;20405;-75
2022/05/27 02:45:46;;;;;;;2.70;1.20;;;16.80;84.10;;;;;;7363191;19;20373;-76
2022/05/27 02:48:22;;;;;;;1.50;1.40;;;16.80;85.10;;;;;;7352395;19;20390;-76
2022/05/27 02:51:02;;;;;;;4.33;1.60;;;16.80;85.10;;;;;;7364989;19;20400;-76
2022/05/27 02:53:40;;;;;;;1.50;1.40;;;16.70;85.20;;;;;;7369905;19;20454;-75
2022/05/27 02:56:15;;;;;;;3.43;1.60;;;16.60;85.90;;;;;;7355384;19;20408;-74
2022/05/27 02:58:44;;;;;;;1.40;1.30;;;16.40;87.80;;;;;;7357812;19;20408;-76
2022/05/27 03:01:14;;;;;;;1.63;1.33;;;16.30;88.50;;;;;;7368458;19;20408;-75
2022/05/27 03:03:44;;;;;;;1.90;1.30;;;16.30;88.90;;;;;;7368447;19;20420;-75
2022/05/27 03:06:38;;;;;;;1.73;1.37;;;16.40;89.20;;;;;;7360996;19;20470;-75
2022/05/27 03:09:13;;;;;;;2.37;1.20;;;16.60;88.50;;;;;;7364864;19;20404;-76
2022/05/27 03:12:05;;;;;;;2.80;1.40;;;16.60;87.70;;;;;;7367094;19;20536;-76
2022/05/27 03:14:46;;;;;;;1.50;1.40;;;16.70;86.30;;;;;;7370942;19;20401;-76
2022/05/27 03:17:25;;;;;;;1.97;1.60;;;17.40;86.50;;;;;;7368539;19;20390;-76
2022/05/27 03:20:11;;;;;;;2.30;1.33;;;17.00;85.50;;;;;;7369310;19;20385;-74
2022/05/27 03:22:56;;;;;;;1.70;1.60;;;16.90;85.80;;;;;;7371034;19;20391;-75
2022/05/27 03:25:37;;;;;;;1.53;1.40;;;16.90;87.00;;;;;;7359106;19;20480;-75
2022/05/27 03:28:11;;;;;;;1.87;1.70;;;17.00;86.80;;;;;;7359923;19;20526;-75
2022/05/27 03:30:49;;;;;;;2.70;1.53;;;17.10;84.70;;;;;;7375377;19;20954;-74
2022/05/27 03:33:26;;;;;;;2.30;1.70;;;17.10;84.30;;;;;;7372362;19;20412;-75
2022/05/27 03:36:01;;;;;;;1.43;1.33;;;17.00;83.50;;;;;;7380140;19;20460;-74
2022/05/27 03:38:40;;;;;;;2.17;1.60;;;17.20;84.20;;;;;;7371662;19;20396;-74
2022/05/27 03:41:14;;;;;;;1.93;1.43;;;17.10;83.60;;;;;;7379526;19;20392;-75
2022/05/27 03:43:44;;;;;;;2.13;1.57;;;17.20;83.20;;;;;;7381822;19;20426;-76
2022/05/27 03:46:14;;;;;;;1.70;1.40;;;17.30;82.70;;;;;;7366379;19;21579;-75
2022/05/27 03:48:44;;;;;;;3.07;1.53;;;17.40;82.10;;;;;;7364875;19;21054;-75
2022/05/27 03:51:22;;;;;;;3.53;1.40;;;17.50;81.80;;;;;;7368313;19;20420;-75
2022/05/27 03:54:07;;;;;;;2.03;1.40;;;17.60;80.90;;;;;;7374349;19;20844;-76
2022/05/27 03:56:39;;;;;;;2.90;1.70;;;17.60;81.00;;;;;;7372051;19;21023;-75
2022/05/27 03:59:14;;;;;;;2.00;1.30;;;17.60;80.50;;;;;;7370817;19;20395;-75
2022/05/27 04:01:46;;;;;;;3.83;1.60;;;17.40;81.40;;;;;;7373295;19;20535;-75
2022/05/27 04:04:19;;;;;;;3.57;1.60;;;17.30;81.20;;;;;;7372328;19;20547;-75
2022/05/27 04:06:49;;;;;;;1.83;1.60;;;17.40;81.60;;;;;;7367925;19;20416;-76
2022/05/27 04:09:22;;;;;;;3.50;1.80;;;17.40;81.60;;;;;;7365603;19;20383;-75
2022/05/27 04:11:52;;;;;;;3.03;1.73;;;17.40;81.70;;;;;;7372739;19;20424;-75
2022/05/27 04:14:22;;;;;;;1.60;1.50;;;17.40;82.00;;;;;;7371487;19;20923;-75
2022/05/27 04:17:27;;;;;;;1.83;1.73;;;17.40;81.50;;;;;;7366596;19;20666;-74
2022/05/27 04:19:43;;;;;;;1.63;1.53;;;17.10;82.50;;;;;;7371090;19;20412;-76
2022/05/27 04:22:13;;;;;;;1.70;1.40;;;17.10;83.30;;;;;;7371176;19;20373;-75
2022/05/27 04:24:47;;;;;;;4.63;1.40;;;17.20;83.30;;;;;;7368817;19;20409;-75
2022/05/27 04:27:19;;;;;;;1.73;1.47;;;17.00;83.80;;;;;;7372702;19;20450;-76
2022/05/27 04:29:53;;;;;;;2.20;1.40;;;17.10;84.00;;;;;;7366239;19;20406;-76
2022/05/27 04:32:25;;;;;;;1.87;1.57;;;17.20;83.70;;;;;;7368446;19;20396;-77
2022/05/27 04:34:55;;;;;;;4.13;1.80;;;17.40;83.40;;;;;;7367168;19;21145;-77
2022/05/27 04:37:26;;;;;;;7.43;2.40;;;17.50;82.50;;;;;;7371891;19;20411;-76
2022/05/27 04:40:01;;;;;;;6.30;1.90;;;17.90;82.70;;;;;;7366578;19;20400;-76
2022/05/27 04:42:30;;;;;;;3.13;1.90;;;17.60;82.70;;;;;;7369645;19;20416;-75
2022/05/27 04:45:00;;;;;;;2.67;2.30;;;17.60;83.50;;;;;;7370327;19;20880;-76
2022/05/27 04:47:29;;;;;;;2.40;1.83;;;17.70;82.30;;;;;;7367623;19;20427;-76
2022/05/27 04:49:59;;;;;;;3.20;2.33;;;17.70;82.40;;;;;;7362594;19;20919;-77
2022/05/27 04:52:30;;;;;;;2.60;2.20;;;17.70;82.20;;;;;;7373395;19;20404;-77
2022/05/27 04:55:06;;;;;;;2.40;1.97;;;17.70;82.40;;;;;;7368993;19;20424;-77
2022/05/27 04:57:38;;;;;;;2.23;1.80;;;17.60;83.30;;;;;;7225997;19;2799591;-77
2022/05/27 05:00:11;;;;;;;4.40;1.97;;;17.50;82.70;;;;;;7368655;19;20228;-77
2022/05/27 05:02:40;;;;;;;4.93;2.07;;;17.60;83.60;;;;;;7371889;19;21156;-77
2022/05/27 05:05:11;;;;;;;2.90;2.47;;;17.60;82.90;;;;;;7373153;19;21963;-77
2022/05/27 05:07:41;;;;;;;3.33;2.00;;;17.80;82.40;;;;;;7375375;19;21140;-76
2022/05/27 05:10:18;;;;;;;3.10;1.93;;;17.90;81.70;;;;;;7366864;19;20422;-75
2022/05/27 05:12:49;;;;;;;5.47;2.20;;;18.00;80.70;;;;;;7373239;19;20419;-77
2022/05/27 05:15:19;;;;;;;3.00;2.20;;;17.90;80.70;;;;;;7369578;19;20364;-77
2022/05/27 05:17:49;;;;;;;3.30;1.87;;;18.00;81.00;;;;;;7371319;19;20408;-76
2022/05/27 05:20:22;;;;;;;2.47;2.27;;;18.00;80.70;;;;;;7369918;19;20446;-76
2022/05/27 05:22:53;;;;;;;2.27;1.53;;;18.10;80.20;;;;;;7375938;19;20499;-76
2022/05/27 05:25:26;;;;;;;3.40;2.20;;;18.10;80.10;;;;;;7371547;19;20935;-76
2022/05/27 05:27:56;;;;;;;2.43;1.60;;;18.00;81.30;;;;;;7375332;19;20501;-76
2022/05/27 05:30:29;;;;;;;4.63;2.93;;;18.00;81.30;;;;;;7358650;19;21068;-76
2022/05/27 05:32:58;;;;;;;4.73;2.87;;;18.10;80.90;;;;;;7371162;19;20412;-76
2022/05/27 05:35:28;;;;;;;4.93;2.30;;;18.20;80.20;;;;;;7371777;19;20813;-77
2022/05/27 05:37:59;;;;;;;2.57;2.00;;;18.30;79.40;;;;;;7375641;19;20471;-75
2022/05/27 05:40:32;;;;;;;2.83;1.77;;;18.30;79.10;;;;;;7366099;19;20455;-76
2022/05/27 05:43:02;;;;;;;2.90;2.50;;;18.40;78.90;;;;;;7372326;19;20425;-76
2022/05/27 05:45:31;;;;;;;3.77;1.80;;;18.50;78.60;;;;;;7370217;19;20392;-77
2022/05/27 05:48:01;;;;;;;3.00;1.70;;;18.60;77.80;;;;;;7355098;19;20400;-77
2022/05/27 05:50:32;;;;;;;2.37;1.97;;;18.40;78.30;;;;;;7365373;19;20951;-77
2022/05/27 05:53:02;;;;;;;2.50;2.27;;;18.50;78.40;;;;;;7363179;19;20388;-76
2022/05/27 05:55:35;;;;;;;1.60;1.50;;;18.50;78.10;;;;;;7361974;19;20404;-70
2022/05/27 05:58:06;;;;;;;3.27;1.80;;;18.40;79.40;;;;;;7362083;19;21476;-81
2022/05/27 06:00:41;;;;;;;2.00;1.53;;;18.40;79.20;;;;;;7377345;19;20414;-82
2022/05/27 06:03:11;;;;;;;2.27;1.70;;;18.30;80.00;;;;;;7373123;19;20404;-82
2022/05/27 06:05:42;;;;;;;2.97;1.80;;;18.30;80.10;;;;;;7370709;19;20416;-83
2022/05/27 06:08:12;;;;;;;2.77;1.80;;;18.20;80.40;;;;;;7371037;19;20991;-85
2022/05/27 06:10:44;;;;;;;3.57;2.10;;;18.20;80.10;;;;;;7363600;19;20417;-82
2022/05/27 06:13:14;;;;;;;3.93;1.97;;;18.30;80.50;;;;;;7372385;19;20404;-82
2022/05/27 06:15:47;;;;;;;1.93;1.60;;;18.40;80.10;;;;;;7370739;19;20412;-81
2022/05/27 06:18:16;;;;;;;3.33;1.97;;;18.40;79.60;;;;;;7368111;19;20680;-85
2022/05/27 06:20:48;;;;;;;2.60;1.70;;;18.50;80.00;;;;;;7355229;19;20783;-81
2022/05/27 06:23:18;;;;;;;3.97;2.10;;;18.40;79.80;;;;;;7369716;19;20400;-82
2022/05/27 06:25:56;;;;;;;2.80;2.10;;;18.40;79.80;;;;;;7368441;19;20429;-90
2022/05/27 06:36:35;;;;;;;2.90;2.13;;;18.30;80.50;;;;;;7381221;19;20899;-87
2022/05/27 06:39:07;;;;;;;2.67;1.90;;;18.40;80.50;;;;;;7372622;19;20991;-82
2022/05/27 06:41:42;;;;;;;3.50;2.40;;;18.50;80.80;;;;;;7360922;19;20396;-80
2022/05/27 06:44:12;;;;;;;2.47;1.80;;;18.50;80.40;;;;;;7326208;19;22052;-80
2022/05/27 06:46:42;;;;;;;9.57;2.60;;;18.50;80.20;;;;;;7338862;19;20411;-79
2022/05/27 06:49:12;;;;;;;4.33;2.17;;;18.50;80.80;;;;;;7340782;19;20404;-80
2022/05/27 06:51:42;;;;;;;2.40;1.90;;;18.60;80.50;;;;;;7349157;19;20423;-81
2022/05/27 06:54:13;;;;;;;3.60;1.80;;;18.70;80.20;;;;;;7369861;19;21051;-79
2022/05/27 06:56:49;;;;;;;2.23;1.60;;;18.70;80.40;;;;;;7336676;19;20701;-79
2022/05/27 06:59:23;;;;;;;3.53;2.10;;;18.60;80.90;;;;;;7343453;19;20420;-81
2022/05/27 07:01:54;;;;;;;3.43;2.30;;;18.60;80.60;;;;;;7356778;19;20491;-81
2022/05/27 07:04:24;;;;;;;2.53;1.80;;;18.60;80.50;;;;;;7365936;19;21347;-81
2022/05/27 07:06:53;;;;;;;4.60;2.50;;;18.40;81.20;;;;;;7366606;19;20550;-81
2022/05/27 07:09:24;;;;;;;4.63;2.23;;;18.40;81.70;;;;;;7364842;19;20423;-79
2022/05/27 07:11:58;;;;;;;2.83;2.33;;;18.30;82.00;;;;;;7346529;19;20514;-80
2022/05/27 07:14:27;;;;;;;2.30;1.80;;;18.20;82.90;;;;;;7340165;19;20768;-81
2022/05/27 07:16:57;;;;;;;6.97;3.17;;;18.20;83.10;;;;;;7331523;19;21086;-81
2022/05/27 07:19:29;;;;;;;6.93;4.93;;;18.20;82.90;;;;;;7361285;19;20514;-82
2022/05/27 07:21:58;;;;;;;6.63;4.40;;;18.20;83.60;;;;;;7363452;19;20428;-82
2022/05/27 07:24:28;;;;;;;2.83;2.47;;;18.30;83.60;;;;;;7358696;19;20874;-81
2022/05/27 07:27:00;;;;;;;2.90;2.00;;;18.40;82.90;;;;;;7349113;19;20413;-82
2022/05/27 07:29:30;;;;;;;3.50;2.03;;;18.40;81.90;;;;;;7329368;19;20400;-81
2022/05/27 07:31:59;;;;;;;2.70;2.30;;;18.40;82.30;;;;;;7343029;19;20405;-81
2022/05/27 07:34:29;;;;;;;3.13;2.27;;;18.40;82.00;;;;;;7348211;19;20404;-81
2022/05/27 07:36:59;;;;;;;2.80;2.03;;;18.60;81.70;;;;;;7343517;19;20396;-81
2022/05/27 07:39:29;;;;;;;2.83;2.03;;;18.60;80.20;;;;;;7349616;19;20404;-81
2022/05/27 07:42:01;;;;;;;2.70;1.90;;;18.60;80.60;;;;;;7362210;19;20415;-81
2022/05/27 07:44:31;;;;;;;7.10;2.60;;;18.50;80.80;;;;;;7366699;19;20384;-83
2022/05/27 07:47:01;;;;;;;4.73;2.30;;;18.80;80.50;;;;;;7356020;19;20416;-80
2022/05/27 07:49:31;;;;;;;4.77;2.27;;;19.10;79.60;;;;;;7356329;19;20424;-81
2022/05/27 07:52:01;;;;;;;2.70;1.97;;;19.30;78.30;;;;;;7359367;19;20432;-83
2022/05/27 07:54:30;;;;;;;2.00;1.70;;;19.50;76.50;;;;;;7361326;19;20397;-81
2022/05/27 07:57:03;;;;;;;3.60;2.10;;;19.70;75.90;;;;;;7349626;19;20530;-82
2022/05/27 07:59:33;;;;;;;6.50;2.00;;;19.80;75.30;;;;;;7358129;19;21201;-83
2022/05/27 08:02:05;;;;;;;2.27;2.07;;;19.80;74.60;;;;;;7358313;19;21299;-82
2022/05/27 08:04:35;;;;;;;2.00;1.80;;;19.70;74.30;;;;;;7364214;19;21586;-80
2022/05/27 08:07:05;;;;;;;2.80;2.10;;;19.60;74.70;;;;;;7366576;19;20408;-82
2022/05/27 08:09:34;;;;;;;4.40;1.80;;;19.60;75.00;;;;;;7366246;19;20412;-86
2022/05/27 08:12:07;;;;;;;6.33;2.30;;;19.60;75.40;;;;;;7367749;19;20413;-84
2022/05/27 08:14:37;;;;;;;5.30;2.43;;;19.70;74.80;;;;;;7368906;19;20416;-85
2022/05/27 08:17:07;;;;;;;6.93;2.30;;;19.90;74.20;;;;;;7367497;19;21191;-86
2022/05/27 08:19:39;;;;;;;2.43;1.70;;;20.00;73.30;;;;;;7367479;19;20416;-80
2022/05/27 08:22:09;;;;;;;7.47;2.10;;;20.10;72.80;;;;;;7373292;19;21690;-84
2022/05/27 08:24:38;;;;;;;4.97;2.27;;;20.20;72.40;;;;;;7372950;19;20867;-85
2022/05/27 08:27:10;;;;;;;2.60;2.07;;;20.20;72.10;;;;;;7371039;19;20499;-83
2022/05/27 08:29:43;;;;;;;7.50;2.27;;;20.30;72.10;;;;;;7368260;19;21007;-83
2022/05/27 08:32:13;;;;;;;3.67;2.13;;;20.40;71.20;;;;;;7367896;19;21014;-85
2022/05/27 08:40:21;;;;;;;5.67;2.07;;;20.30;70.70;;;;;;7368786;19;22210;-82
2022/05/27 08:43:06;;;;;;;2.33;1.80;;;20.00;71.00;;;;;;7375773;19;20388;-94
2022/05/27 08:45:42;;;;;;;4.43;1.60;;;20.00;72.10;;;;;;7373600;19;20418;-81
2022/05/27 08:48:14;;;;;;;4.57;1.87;;;20.00;71.80;;;;;;7372492;19;20412;-83
2022/05/27 08:50:50;;;;;;;3.00;2.03;;;20.00;72.30;;;;;;7363861;19;20404;-87
2022/05/27 08:53:27;;;;;;;3.10;2.17;;;20.10;71.70;;;;;;7382630;19;20379;-82
2022/05/27 09:01:36;;;;;;;2.70;2.00;;;20.00;72.10;;;;;;7367193;19;20419;-77
2022/05/27 09:04:13;;;;;;;5.53;2.10;;;19.80;73.20;;;;;;7363254;19;20396;-82
2022/05/27 09:06:47;;;;;;;3.03;1.90;;;19.90;73.20;;;;;;7371504;19;20404;-82
2022/05/27 09:09:22;;;;;;;4.13;2.10;;;19.90;73.20;;;;;;7363615;19;20420;-78
2022/05/27 09:12:12;;;;;;;3.40;1.80;;;19.90;73.30;;;;;;7353904;19;20411;-89
2022/05/27 09:14:48;;;;;;;2.43;1.80;;;19.90;71.90;;;;;;7357136;19;20408;-81
2022/05/27 09:17:35;;;;;;;3.77;2.17;;;20.10;71.60;;;;;;7352332;19;20482;-79
2022/05/27 09:20:18;;;;;;;8.83;2.47;;;20.30;70.80;;;;;;7373575;19;20380;-82
2022/05/27 09:22:57;;;;;;;3.50;2.20;;;20.70;72.00;;;;;;7351530;19;20408;-83
2022/05/27 09:25:34;;;;;;;3.03;1.70;;;21.20;69.70;;;;;;7363732;19;20421;-85
2022/05/27 09:28:14;;;;;;;3.73;1.93;;;21.90;66.80;;;;;;7369949;19;20415;-83
2022/05/27 09:30:48;;;;;;;12.37;6.40;;;22.60;62.60;;;;;;7359181;19;20506;-84
2022/05/27 09:33:23;;;;;;;23.50;12.37;;;23.30;59.60;;;;;;7378416;19;20428;-88
2022/05/27 09:36:01;;;;;;;5.90;3.43;;;23.90;58.50;;;;;;7378364;19;21062;-86
2022/05/27 09:38:34;;;;;;;2.60;1.90;;;24.50;55.60;;;;;;7376461;19;20523;-84
2022/05/27 09:41:07;;;;;;;3.17;2.17;;;24.20;54.60;;;;;;7379553;19;20415;-84
2022/05/27 09:43:43;;;;;;;3.77;1.80;;;23.60;55.30;;;;;;7375337;19;20400;-85
2022/05/27 09:46:18;;;;;;;4.47;2.73;;;23.30;55.80;;;;;;7377996;19;20407;-86
2022/05/27 09:48:47;;;;;;;4.00;1.90;;;22.60;55.20;;;;;;7383767;19;20411;-85
2022/05/27 09:51:19;;;;;;;6.83;2.10;;;22.30;56.40;;;;;;7375900;19;20826;-86
2022/05/27 09:53:51;;;;;;;6.43;2.20;;;24.50;58.60;;;;;;7365138;19;20483;-84
2022/05/27 09:56:39;;;;;;;6.77;1.90;;;22.40;56.50;;;;;;7371094;19;20432;-87
2022/05/27 09:59:23;;;;;;;5.53;2.70;;;22.20;54.60;;;;;;7359937;19;20400;-81
2022/05/27 10:02:14;;;;;;;1.43;1.33;;;21.90;55.50;;;;;;7365215;19;20519;-86
2022/05/27 10:04:52;;;;;;;1.97;1.33;;;21.50;55.60;;;;;;7370820;19;20420;-89
2022/05/27 10:07:35;;;;;;;1.90;1.30;;;21.40;56.00;;;;;;7381775;19;20419;-88
2022/05/27 10:10:28;;;;;;;2.20;1.60;;;21.50;56.20;;;;;;7376715;19;20940;-86
2022/05/27 10:13:14;;;;;;;1.83;1.30;;;22.80;54.20;;;;;;7357839;19;21712;-87
2022/05/27 10:15:44;;;;;;;5.30;1.73;;;24.60;50.80;;;;;;7367556;19;20404;-84
2022/05/27 10:18:23;;;;;;;2.93;1.40;;;26.60;46.40;;;;;;7359380;19;20397;-84
2022/05/27 10:20:55;;;;;;;2.27;1.50;;;27.40;42.90;;;;;;7359129;19;20404;-81
2022/05/27 10:23:28;;;;;;;2.10;1.30;;;27.10;41.70;;;;;;7363048;19;20408;-82
2022/05/27 10:25:58;;;;;;;1.50;1.40;;;27.00;42.40;;;;;;7359453;19;20499;-77
2022/05/27 10:28:30;;;;;;;1.63;1.13;;;27.60;40.20;;;;;;7366609;19;20404;-79
2022/05/27 10:31:04;;;;;;;2.03;1.30;;;29.00;38.40;;;;;;7355339;19;20911;-84
2022/05/27 10:33:43;;;;;;;1.20;0.93;;;29.60;48.40;;;;;;7368662;19;20379;-81
2022/05/27 10:36:43;;;;;;;2.40;1.43;;;28.70;50.80;;;;;;7354208;19;20408;-84
2022/05/27 10:39:19;;;;;;;2.07;1.30;;;27.80;49.00;;;;;;7364484;19;20446;-83
2022/05/27 10:42:00;;;;;;;1.37;1.20;;;27.60;49.60;;;;;;7354997;19;20442;-82
2022/05/27 10:44:43;;;;;;;3.03;1.60;;;28.20;47.10;;;;;;7357387;19;20404;-81
2022/05/27 10:47:19;;;;;;;3.70;1.13;;;29.30;45.60;;;;;;7335512;19;20416;-81
2022/05/27 10:50:07;;;;;;;1.30;1.20;;;28.80;45.90;;;;;;7360615;19;20412;-81
2022/05/27 10:53:05;;;;;;;1.50;1.40;;;28.10;46.50;;;;;;7369157;19;20416;-81
2022/05/27 10:55:46;;;;;;;3.70;1.40;;;27.40;48.30;;;;;;7369002;19;20408;-79
2022/05/27 11:04:32;;;;;;;2.00;1.37;;;25.50;49.80;;;;;;7372483;19;20850;-84
2022/05/27 11:07:18;;;;;;;1.60;1.30;;;25.20;50.20;;;;;;7365514;19;20408;-83
2022/05/27 11:10:00;;;;;;;2.57;1.10;;;25.00;50.90;;;;;;7365745;19;21649;-84
2022/05/27 11:15:41;;;;;;;2.73;1.40;;;24.30;52.30;;;;;;7372879;19;20380;-83
2022/05/27 11:18:22;;;;;;;3.20;1.23;;;24.00;53.50;;;;;;7369230;19;20965;-84
2022/05/27 11:21:09;;;;;;;3.70;1.47;;;23.80;53.30;;;;;;7375112;19;20936;-83
2022/05/27 11:24:03;;;;;;;2.20;1.80;;;23.60;53.40;;;;;;7368982;19;20470;-84
2022/05/27 11:26:42;;;;;;;3.90;1.73;;;23.70;54.70;;;;;;7365413;19;20404;-83
2022/05/27 11:29:38;;;;;;;2.23;1.40;;;23.70;54.20;;;;;;7365343;19;20419;-84
2022/05/27 11:32:17;;;;;;;1.83;1.60;;;23.90;53.80;;;;;;7370583;19;20458;-79
2022/05/27 11:34:54;;;;;;;2.43;2.00;;;23.90;54.00;;;;;;7374447;19;20774;-79
2022/05/27 11:37:45;;;;;;;4.30;1.60;;;23.90;53.90;;;;;;7372106;19;20531;-81
2022/05/27 11:40:35;;;;;;;3.70;1.57;;;23.90;52.70;;;;;;7373087;19;20405;-79
2022/05/27 11:43:50;;;;;;;2.60;1.10;;;24.00;51.70;;;;;;7376233;19;20416;-80
2022/05/27 11:46:45;;;;;;;2.17;1.10;;;24.00;49.70;;;;;;7373638;19;20435;-80
2022/05/27 11:49:37;;;;;;;1.13;1.10;;;24.00;49.40;;;;;;7377705;19;20412;-81
2022/05/27 11:52:23;;;;;;;2.30;1.47;;;23.70;49.50;;;;;;7376338;19;20416;-81
2022/05/27 11:55:08;;;;;;;2.47;1.63;;;23.40;49.80;;;;;;7377898;19;20449;-80
2022/05/27 11:57:52;;;;;;;4.00;1.40;;;23.30;49.70;;;;;;7379636;19;20443;-80
2022/05/27 12:00:27;;;;;;;1.77;1.50;;;23.30;48.80;;;;;;7380349;19;20376;-83
2022/05/27 12:03:01;;;;;;;1.13;1.03;;;23.20;48.80;;;;;;7380444;19;20411;-83
2022/05/27 12:05:35;;;;;;;1.83;1.27;;;23.10;48.90;;;;;;7378751;19;20383;-84
2022/05/27 12:08:09;;;;;;;1.50;1.40;;;23.00;48.50;;;;;;7375516;19;20376;-83
2022/05/27 12:10:46;;;;;;;1.83;1.10;;;23.00;48.50;;;;;;7374287;19;20458;-83
2022/05/27 12:13:29;;;;;;;1.80;1.30;;;23.00;48.80;;;;;;7377671;19;20379;-83
2022/05/27 12:16:03;;;;;;;3.43;1.67;;;23.50;48.20;;;;;;7378470;19;20423;-82
2022/05/27 12:18:39;;;;;;;1.60;1.50;;;23.70;48.10;;;;;;7376668;19;20415;-83
2022/05/27 12:21:12;;;;;;;1.57;1.47;;;23.60;48.20;;;;;;7372286;19;20416;-83
2022/05/27 12:23:48;;;;;;;1.93;1.40;;;23.40;47.80;;;;;;7374196;19;20663;-84
2022/05/27 12:26:24;;;;;;;1.20;1.10;;;23.60;47.70;;;;;;7376908;19;20787;-83
2022/05/27 12:29:00;;;;;;;2.03;1.30;;;24.00;47.60;;;;;;7375383;19;20400;-81
2022/05/27 12:31:31;;;;;;;1.37;1.27;;;23.80;48.00;;;;;;7372058;19;20529;-81
2022/05/27 12:34:21;;;;;;;1.77;1.67;;;24.10;49.10;;;;;;7378473;19;20401;-81
2022/05/27 12:36:53;;;;;;;1.50;1.10;;;25.60;45.50;;;;;;7376781;19;20511;-81
2022/05/27 12:39:26;;;;;;;1.40;1.30;;;27.60;41.10;;;;;;7371559;19;21081;-80
2022/05/27 12:42:11;;;;;;;1.67;1.00;;;28.00;40.50;;;;;;7375772;19;20416;-80
2022/05/27 12:44:44;;;;;;;1.43;1.20;;;29.10;39.10;;;;;;7376012;19;20931;-80
2022/05/27 12:47:19;;;;;;;4.20;1.30;;;30.50;36.80;;;;;;7377038;19;21179;-81
2022/05/27 12:49:51;;;;;;;1.63;1.10;;;31.70;42.70;;;;;;7375327;19;21126;-81
2022/05/27 12:52:46;;;;;;;1.33;1.23;;;32.10;41.50;;;;;;7371701;19;20424;-81
2022/05/27 13:00:55;;;;;;;1.60;1.10;;;31.10;41.80;;;;;;7371221;19;20412;-81
2022/05/27 13:01:32;;;;;;;1.40;1.30;;;28.20;46.60;;;;;;7377368;19;20421;-81
2022/05/27 13:04:03;;;;;;;1.70;1.20;;;26.80;48.80;;;;;;7378193;19;20364;-81
2022/05/27 13:06:41;;;;;;;4.43;1.60;;;26.00;50.70;;;;;;7375260;19;20428;-80
2022/05/27 13:09:37;;;;;;;3.17;1.00;;;25.40;52.10;;;;;;7372080;19;20959;-80
2022/05/27 13:12:12;;;;;;;1.50;1.40;;;24.90;53.50;;;;;;7377466;19;21315;-80
2022/05/27 13:14:52;;;;;;;1.53;1.43;;;24.40;54.20;;;;;;7379842;19;20400;-80
2022/05/27 13:17:34;;;;;;;3.30;1.77;;;24.30;55.00;;;;;;7352117;19;20865;-81
2022/05/27 13:20:22;;;;;;;1.37;1.27;;;24.10;55.40;;;;;;7379749;19;20432;-81
2022/05/27 13:23:00;;;;;;;1.80;1.33;;;24.20;55.10;;;;;;7380276;19;21161;-80
2022/05/27 13:25:35;;;;;;;7.33;1.90;;;24.30;55.50;;;;;;7375702;19;20501;-80
2022/05/27 13:28:13;;;;;;;2.50;1.57;;;24.30;55.50;;;;;;7377200;19;20418;-80
2022/05/27 13:31:06;;;;;;;2.37;1.40;;;24.10;47.70;;;;;;7379757;19;20439;-80
2022/05/27 13:33:44;;;;;;;1.50;1.30;;;24.10;47.50;;;;;;7379642;19;20465;-80
2022/05/27 13:36:22;;;;;;;1.93;1.50;;;24.10;47.60;;;;;;7375167;19;20403;-81
2022/05/27 13:38:57;;;;;;;1.87;1.57;;;24.20;47.70;;;;;;7376227;19;20384;-80
2022/05/27 13:41:31;;;;;;;2.10;1.20;;;24.20;47.30;;;;;;7377666;19;20476;-81
2022/05/27 13:44:01;;;;;;;2.50;1.00;;;24.00;47.40;;;;;;7377538;19;20450;-79
2022/05/27 13:46:33;;;;;;;3.10;1.30;;;23.80;48.30;;;;;;7365787;19;20407;-80
2022/05/27 13:49:11;;;;;;;1.47;1.37;;;23.50;48.70;;;;;;7379663;19;20380;-80
2022/05/27 13:51:44;;;;;;;1.37;1.27;;;23.60;49.10;;;;;;7376435;19;20648;-80
2022/05/27 13:54:18;;;;;;;1.73;1.33;;;23.60;49.00;;;;;;7371821;19;20408;-80
2022/05/27 13:56:53;;;;;;;2.87;1.33;;;23.60;48.80;;;;;;7376441;19;20575;-81
2022/05/27 13:59:28;;;;;;;2.40;1.57;;;23.60;48.80;;;;;;7373292;19;20896;-80
2022/05/27 14:02:01;;;;;;;2.33;1.37;;;23.80;49.10;;;;;;7375024;19;20412;-80